createdAt,value
2022-09-25T00:01:07.912Z,9.37
2022-09-25T00:02:40.763Z,8.40
2022-09-25T00:04:14.813Z,8.27
2022-09-25T00:05:47.477Z,9.53
2022-09-25T00:07:20.155Z,9.37
2022-09-25T00:08:53.216Z,9.60
2022-09-25T00:10:25.420Z,8.73
2022-09-25T00:11:58.127Z,10.10
2022-09-25T00:13:30.822Z,10.20
2022-09-25T00:15:02.594Z,8.67
2022-09-25T00:16:35.367Z,9.30
2022-09-25T00:18:07.143Z,8.57
2022-09-25T00:19:53.298Z,9.13
2022-09-25T00:21:29.131Z,8.80
2022-09-25T00:23:02.209Z,8.03
2022-09-25T00:24:35.817Z,8.77
2022-09-25T00:26:08.685Z,9.10
2022-09-25T00:27:41.854Z,9.13
2022-09-25T00:29:18.334Z,9.40
2022-09-25T00:30:51.162Z,9.07
2022-09-25T00:32:23.886Z,8.97
2022-09-25T00:34:03.032Z,9.87
2022-09-25T00:35:37.061Z,8.90
2022-09-25T00:37:09.796Z,9.97
2022-09-25T00:38:41.508Z,10.23
2022-09-25T00:40:14.307Z,10.10
2022-09-25T00:41:47.040Z,8.83
2022-09-25T00:43:37.521Z,9.60
2022-09-25T00:45:17.031Z,10.73
2022-09-25T00:46:49.743Z,9.93
2022-09-25T00:48:22.486Z,9.90
2022-09-25T00:49:56.513Z,10.67
2022-09-25T00:51:36.798Z,9.67
2022-09-25T00:53:13.651Z,9.30
2022-09-25T00:54:48.892Z,9.50
2022-09-25T00:56:21.653Z,10.80
2022-09-25T00:57:57.430Z,10.23
2022-09-25T00:59:35.237Z,9.90
2022-09-25T01:01:07.944Z,10.00
2022-09-25T01:02:44.533Z,10.53
2022-09-25T01:04:18.212Z,10.07
2022-09-25T01:05:50.038Z,11.33
2022-09-25T01:07:24.088Z,11.50
2022-09-25T01:08:57.884Z,11.87
2022-09-25T01:10:29.663Z,10.77
2022-09-25T01:12:02.801Z,11.97
2022-09-25T01:13:35.481Z,11.53
2022-09-25T01:15:09.291Z,11.60
2022-09-25T01:16:47.964Z,11.60
2022-09-25T01:18:34.170Z,11.00
2022-09-25T01:20:22.301Z,10.93
2022-09-25T01:22:01.408Z,10.10
2022-09-25T01:23:56.394Z,10.03
2022-09-25T01:25:40.605Z,10.13
2022-09-25T01:27:41.853Z,11.57
2022-09-25T01:29:18.956Z,9.37
2022-09-25T01:30:56.861Z,10.47
2022-09-25T01:32:36.509Z,10.07
2022-09-25T01:34:14.905Z,10.03
2022-09-25T01:35:52.076Z,11.00
2022-09-25T01:37:29.802Z,10.93
2022-09-25T01:39:10.478Z,10.63
2022-09-25T01:40:50.097Z,11.00
2022-09-25T01:42:26.730Z,10.23
2022-09-25T01:44:03.002Z,13.10
2022-09-25T01:45:43.478Z,14.00
2022-09-25T01:47:22.189Z,14.93
2022-09-25T01:48:58.201Z,14.33
2022-09-25T01:50:36.164Z,11.90
2022-09-25T01:52:14.689Z,14.90
2022-09-25T01:53:50.415Z,12.60
2022-09-25T01:55:30.570Z,13.53
2022-09-25T01:57:09.342Z,13.07
2022-09-25T01:58:47.351Z,11.43
2022-09-25T02:00:22.832Z,10.70
2022-09-25T02:02:00.397Z,12.20
2022-09-25T02:03:38.181Z,12.87
2022-09-25T02:05:14.639Z,13.80
2022-09-25T02:06:50.181Z,14.30
2022-09-25T02:08:26.866Z,15.67
2022-09-25T02:10:05.788Z,16.30
2022-09-25T02:11:42.006Z,16.30
2022-09-25T02:13:18.469Z,14.57
2022-09-25T02:14:55.003Z,15.03
2022-09-25T02:16:35.290Z,14.03
2022-09-25T02:18:28.766Z,15.60
2022-09-25T02:20:19.530Z,14.80
2022-09-25T02:21:59.850Z,13.73
2022-09-25T02:23:40.318Z,15.37
2022-09-25T02:25:18.167Z,14.20
2022-09-25T02:26:51.892Z,14.80
2022-09-25T02:28:24.750Z,15.77
2022-09-25T02:29:58.143Z,15.90
2022-09-25T02:31:35.770Z,15.10
2022-09-25T02:33:10.420Z,14.17
2022-09-25T02:34:43.101Z,15.93
2022-09-25T02:36:20.457Z,12.50
2022-09-25T02:37:53.576Z,14.47
2022-09-25T02:39:28.594Z,16.43
2022-09-25T02:41:08.574Z,15.23
2022-09-25T02:42:49.902Z,12.87
2022-09-25T02:44:34.794Z,12.93
2022-09-25T02:46:14.166Z,13.17
2022-09-25T02:47:58.184Z,13.33
2022-09-25T02:49:40.860Z,13.23
2022-09-25T02:51:20.855Z,13.43
2022-09-25T02:53:01.164Z,11.30
2022-09-25T02:54:44.020Z,13.23
2022-09-25T02:56:26.415Z,12.80
2022-09-25T02:58:04.362Z,11.33
2022-09-25T02:59:41.638Z,14.23
2022-09-25T03:01:17.848Z,14.33
2022-09-25T03:02:53.965Z,13.87
2022-09-25T03:04:30.018Z,13.80
2022-09-25T03:06:05.685Z,13.90
2022-09-25T03:07:52.873Z,13.90
2022-09-25T03:09:26.890Z,12.73
2022-09-25T03:10:59.123Z,12.37
2022-09-25T03:12:37.127Z,12.87
2022-09-25T03:14:10.303Z,12.70
2022-09-25T03:15:46.193Z,13.30
2022-09-25T03:17:20.700Z,14.30
2022-09-25T03:18:53.415Z,13.47
2022-09-25T03:20:25.144Z,13.27
2022-09-25T03:21:59.152Z,12.10
2022-09-25T03:23:31.167Z,13.83
2022-09-25T03:25:03.968Z,12.33
2022-09-25T03:26:36.653Z,15.10
2022-09-25T03:28:10.564Z,11.83
2022-09-25T03:29:44.094Z,14.50
2022-09-25T03:31:16.865Z,13.70
2022-09-25T03:32:49.655Z,13.30
2022-09-25T03:34:22.723Z,12.87
2022-09-25T03:36:11.076Z,13.00
2022-09-25T03:37:45.069Z,12.50
2022-09-25T03:39:18.647Z,11.33
2022-09-25T03:40:50.454Z,12.10
2022-09-25T03:42:27.533Z,11.30
2022-09-25T03:44:01.030Z,10.50
2022-09-25T03:45:32.751Z,10.40
2022-09-25T03:47:05.502Z,10.60
2022-09-25T03:48:37.250Z,10.13
2022-09-25T03:50:10.420Z,11.70
2022-09-25T03:51:43.204Z,11.70
2022-09-25T03:53:18.134Z,10.33
2022-09-25T03:54:51.434Z,11.17
2022-09-25T03:56:25.926Z,11.43
2022-09-25T03:57:58.619Z,10.77
2022-09-25T03:59:31.293Z,11.80
2022-09-25T04:01:04.325Z,11.63
2022-09-25T04:02:37.079Z,9.97
2022-09-25T04:04:09.880Z,9.70
2022-09-25T04:05:42.136Z,10.80
2022-09-25T04:07:14.830Z,10.23
2022-09-25T04:08:49.978Z,11.03
2022-09-25T04:10:21.707Z,10.60
2022-09-25T04:11:56.101Z,10.20
2022-09-25T04:13:30.989Z,10.80
2022-09-25T04:15:04.299Z,9.47
2022-09-25T04:16:37.046Z,11.23
2022-09-25T04:18:09.283Z,12.40
2022-09-25T04:19:42.030Z,12.00
2022-09-25T04:21:16.198Z,12.17
2022-09-25T04:22:48.938Z,12.47
2022-09-25T04:24:40.763Z,11.23
2022-09-25T04:26:13.455Z,10.93
2022-09-25T04:27:45.482Z,10.40
2022-09-25T04:29:18.185Z,12.03
2022-09-25T04:30:51.620Z,12.07
2022-09-25T04:32:42.013Z,12.07
2022-09-25T04:34:13.737Z,12.03
2022-09-25T04:35:46.418Z,12.67
2022-09-25T04:37:26.080Z,11.30
2022-09-25T04:38:58.766Z,11.67
2022-09-25T04:40:33.648Z,12.10
2022-09-25T04:42:06.492Z,11.63
2022-09-25T04:43:40.830Z,12.37
2022-09-25T04:45:13.521Z,12.40
2022-09-25T04:46:46.232Z,12.60
2022-09-25T04:48:18.933Z,9.93
2022-09-25T04:49:51.768Z,9.37
2022-09-25T04:51:24.453Z,8.20
2022-09-25T04:52:57.341Z,8.90
2022-09-25T04:54:30.011Z,8.83
2022-09-25T04:56:12.191Z,8.93
2022-09-25T04:57:58.780Z,10.13
2022-09-25T04:59:32.418Z,10.30
2022-09-25T05:01:06.540Z,9.20
2022-09-25T05:02:39.365Z,11.27
2022-09-25T05:04:11.320Z,11.83
2022-09-25T05:05:44.157Z,11.53
2022-09-25T05:07:16.835Z,12.43
2022-09-25T05:08:50.306Z,12.27
2022-09-25T05:10:23.286Z,13.10
2022-09-25T05:11:57.692Z,10.80
2022-09-25T05:13:30.366Z,10.27
2022-09-25T05:15:03.262Z,12.17
2022-09-25T05:16:36.206Z,9.83
2022-09-25T05:18:18.730Z,9.83
2022-09-25T05:19:51.525Z,9.90
2022-09-25T05:21:24.205Z,9.87
2022-09-25T05:22:57.236Z,10.50
2022-09-25T05:24:30.104Z,11.83
2022-09-25T05:26:03.033Z,11.40
2022-09-25T05:27:37.107Z,10.33
2022-09-25T05:29:10.869Z,10.67
2022-09-25T05:30:43.592Z,11.20
2022-09-25T05:32:17.173Z,11.30
2022-09-25T05:33:51.308Z,10.93
2022-09-25T05:35:24.129Z,12.43
2022-09-25T05:36:56.813Z,11.73
2022-09-25T05:38:30.246Z,11.87
2022-09-25T05:40:03.435Z,12.30
2022-09-25T05:41:36.245Z,11.87
2022-09-25T05:43:09.381Z,12.80
2022-09-25T05:44:42.218Z,11.60
2022-09-25T05:46:16.165Z,12.40
2022-09-25T05:47:49.042Z,11.27
2022-09-25T05:49:21.702Z,11.20
2022-09-25T05:50:54.759Z,11.47
2022-09-25T05:52:27.424Z,10.90
2022-09-25T05:54:00.649Z,10.67
2022-09-25T05:55:33.601Z,11.23
2022-09-25T05:57:06.551Z,10.03
2022-09-25T05:58:40.562Z,10.90
2022-09-25T06:00:16.281Z,12.20
2022-09-25T06:01:49.374Z,12.07
2022-09-25T06:03:21.783Z,12.23
2022-09-25T06:04:54.709Z,13.30
2022-09-25T06:06:27.781Z,13.00
2022-09-25T06:08:00.523Z,12.50
2022-09-25T06:09:33.313Z,11.90
2022-09-25T06:11:07.728Z,11.60
2022-09-25T06:12:40.392Z,13.10
2022-09-25T06:14:14.577Z,13.53
2022-09-25T06:15:52.181Z,12.03
2022-09-25T06:17:24.925Z,12.13
2022-09-25T06:18:57.634Z,13.00
2022-09-25T06:20:29.410Z,10.77
2022-09-25T06:22:02.097Z,10.90
2022-09-25T06:23:34.792Z,11.23
2022-09-25T06:25:09.310Z,11.13
2022-09-25T06:26:42.008Z,10.70
2022-09-25T06:28:14.688Z,10.37
2022-09-25T06:29:48.731Z,11.30
2022-09-25T06:31:21.573Z,11.43
2022-09-25T06:32:58.134Z,15.53
2022-09-25T06:34:30.898Z,12.50
2022-09-25T06:36:06.482Z,11.03
2022-09-25T06:37:39.165Z,10.60
2022-09-25T06:39:11.859Z,10.57
2022-09-25T06:40:45.439Z,10.33
2022-09-25T06:42:18.242Z,11.67
2022-09-25T06:43:51.241Z,11.17
2022-09-25T06:45:26.685Z,11.47
2022-09-25T06:46:59.714Z,13.17
2022-09-25T06:48:32.733Z,12.50
2022-09-25T06:50:04.796Z,11.70
2022-09-25T06:51:39.265Z,13.03
2022-09-25T06:53:12.898Z,13.97
2022-09-25T06:54:45.629Z,14.13
2022-09-25T06:56:18.283Z,14.53
2022-09-25T06:57:50.956Z,15.90
2022-09-25T06:59:25.748Z,15.03
2022-09-25T07:00:59.781Z,14.90
2022-09-25T07:02:50.246Z,15.80
2022-09-25T07:04:22.526Z,15.70
2022-09-25T07:05:55.194Z,15.37
2022-09-25T07:07:27.863Z,15.73
2022-09-25T07:09:01.109Z,16.03
2022-09-25T07:10:32.825Z,15.93
2022-09-25T07:12:05.962Z,15.40
2022-09-25T07:13:38.957Z,13.83
2022-09-25T07:15:12.510Z,13.80
2022-09-25T07:16:46.517Z,14.07
2022-09-25T07:18:19.201Z,13.80
2022-09-25T07:19:51.874Z,14.07
2022-09-25T07:21:27.622Z,14.90
2022-09-25T07:23:03.883Z,14.13
2022-09-25T07:24:36.574Z,16.27
2022-09-25T07:26:11.272Z,16.27
2022-09-25T07:27:44.012Z,14.80
2022-09-25T07:29:17.215Z,13.90
2022-09-25T07:30:49.535Z,15.53
2022-09-25T07:32:23.706Z,13.67
2022-09-25T07:33:57.086Z,15.37
2022-09-25T07:35:28.807Z,15.20
2022-09-25T07:37:01.532Z,13.20
2022-09-25T07:38:36.761Z,14.23
2022-09-25T07:40:12.642Z,14.13
2022-09-25T07:41:45.321Z,15.73
2022-09-25T07:43:17.997Z,10.53
2022-09-25T07:44:50.815Z,11.63
2022-09-25T07:46:23.723Z,10.50
2022-09-25T07:47:58.874Z,10.90
2022-09-25T07:49:31.993Z,10.37
2022-09-25T07:51:06.089Z,10.67
2022-09-25T07:52:38.773Z,12.67
2022-09-25T07:54:10.550Z,10.03
2022-09-25T07:55:43.260Z,9.47
2022-09-25T07:57:16.338Z,11.70
2022-09-25T07:58:48.176Z,14.97
2022-09-25T08:00:21.001Z,11.53
2022-09-25T08:01:54.561Z,11.50
2022-09-25T08:03:29.453Z,12.60
2022-09-25T08:05:02.218Z,12.87
2022-09-25T08:06:36.111Z,15.60
2022-09-25T08:08:09.104Z,14.37
2022-09-25T08:09:41.780Z,15.40
2022-09-25T08:11:16.853Z,13.83
2022-09-25T08:12:49.737Z,15.17
2022-09-25T08:14:26.986Z,12.90
2022-09-25T08:16:00.290Z,14.30
2022-09-25T08:17:33.060Z,14.97
2022-09-25T08:19:07.121Z,15.43
2022-09-25T08:20:40.143Z,15.97
2022-09-25T08:22:12.895Z,16.23
2022-09-25T08:23:49.602Z,16.43
2022-09-25T08:25:22.278Z,16.57
2022-09-25T08:26:55.040Z,17.63
2022-09-25T08:28:27.872Z,15.83
2022-09-25T08:30:00.545Z,17.40
2022-09-25T08:31:34.517Z,15.23
2022-09-25T08:33:15.254Z,12.43
2022-09-25T08:34:50.012Z,14.30
2022-09-25T08:36:23.680Z,12.97
2022-09-25T08:37:58.382Z,13.83
2022-09-25T08:39:31.077Z,14.57
2022-09-25T08:41:08.593Z,12.70
2022-09-25T08:42:41.397Z,13.10
2022-09-25T08:44:23.831Z,14.13
2022-09-25T08:46:17.118Z,13.00
2022-09-25T08:48:09.610Z,14.37
2022-09-25T08:49:48.605Z,13.53
2022-09-25T08:51:23.408Z,12.90
2022-09-25T08:53:05.613Z,13.63
2022-09-25T08:54:40.931Z,13.47
2022-09-25T08:56:17.732Z,15.03
2022-09-25T08:57:55.429Z,15.13
2022-09-25T08:59:33.043Z,14.50
2022-09-25T09:01:08.696Z,14.33
2022-09-25T09:02:45.306Z,14.47
2022-09-25T09:04:25.344Z,15.13
2022-09-25T09:06:02.513Z,16.27
2022-09-25T09:07:40.957Z,15.13
2022-09-25T09:09:18.622Z,14.73
2022-09-25T09:10:55.614Z,15.87
2022-09-25T09:12:35.166Z,16.10
2022-09-25T09:14:15.584Z,15.70
2022-09-25T09:15:53.736Z,13.87
2022-09-25T09:17:28.630Z,15.20
2022-09-25T09:19:03.732Z,15.17
2022-09-25T09:20:44.041Z,14.83
2022-09-25T09:22:21.805Z,15.57
2022-09-25T09:24:05.832Z,13.97
2022-09-25T09:25:47.290Z,14.23
2022-09-25T09:27:31.732Z,13.47
2022-09-25T09:29:32.786Z,11.83
2022-09-25T09:31:14.846Z,13.87
2022-09-25T09:33:01.964Z,13.30
2022-09-25T09:35:05.311Z,12.90
2022-09-25T09:36:46.480Z,13.67
2022-09-25T09:38:28.933Z,13.63
2022-09-25T09:40:18.811Z,12.23
2022-09-25T09:42:04.551Z,12.90
2022-09-25T09:43:54.945Z,12.27
2022-09-25T09:45:39.877Z,14.10
2022-09-25T09:47:28.990Z,13.40
2022-09-25T09:49:10.203Z,13.57
2022-09-25T09:50:52.108Z,13.13
2022-09-25T09:52:30.844Z,13.30
2022-09-25T09:54:11.124Z,13.60
2022-09-25T09:55:50.645Z,14.63
2022-09-25T09:57:26.350Z,15.47
2022-09-25T09:59:02.586Z,14.13
2022-09-25T10:00:35.904Z,13.60
2022-09-25T10:02:20.634Z,14.33
2022-09-25T10:04:01.809Z,14.43
2022-09-25T10:05:38.519Z,14.73
2022-09-25T10:07:16.585Z,15.10
2022-09-25T10:08:49.322Z,13.57
2022-09-25T10:10:35.022Z,15.33
2022-09-25T10:12:16.410Z,14.93
2022-09-25T10:13:50.055Z,15.40
2022-09-25T10:15:29.900Z,15.30
2022-09-25T10:17:04.518Z,15.93
2022-09-25T10:18:41.799Z,15.20
2022-09-25T10:20:20.412Z,15.43
2022-09-25T10:22:01.393Z,14.80
2022-09-25T10:23:39.535Z,15.50
2022-09-25T10:25:12.234Z,15.83
2022-09-25T10:26:44.959Z,15.70
2022-09-25T10:28:29.602Z,16.30
2022-09-25T10:30:20.234Z,14.77
2022-09-25T10:31:59.795Z,14.63
2022-09-25T10:33:33.245Z,15.03
2022-09-25T10:35:07.022Z,14.47
2022-09-25T10:36:41.796Z,16.10
2022-09-25T10:38:29.201Z,15.23
2022-09-25T10:40:04.772Z,15.40
2022-09-25T10:41:44.458Z,15.13
2022-09-25T10:43:20.531Z,15.40
2022-09-25T10:44:58.009Z,15.07
2022-09-25T10:46:49.939Z,16.37
2022-09-25T10:48:47.341Z,15.53
2022-09-25T10:50:22.666Z,16.03
2022-09-25T10:52:05.385Z,16.60
2022-09-25T10:53:38.467Z,15.93
2022-09-25T10:55:16.312Z,16.43
2022-09-25T10:56:50.714Z,15.67
2022-09-25T10:58:30.400Z,16.27
2022-09-25T11:00:19.783Z,16.60
2022-09-25T11:01:55.810Z,15.03
2022-09-25T11:03:32.121Z,14.10
2022-09-25T11:05:07.412Z,14.20
2022-09-25T11:06:45.188Z,13.80
2022-09-25T11:08:18.277Z,14.33
2022-09-25T11:09:51.077Z,12.97
2022-09-25T11:11:27.178Z,12.70
2022-09-25T11:13:00.882Z,13.07
2022-09-25T11:14:36.674Z,13.20
2022-09-25T11:16:11.115Z,12.87
2022-09-25T11:17:45.984Z,13.67
2022-09-25T11:19:25.177Z,13.70
2022-09-25T11:21:03.704Z,14.07
2022-09-25T11:22:40.138Z,12.77
2022-09-25T11:24:20.503Z,13.40
2022-09-25T11:26:00.546Z,14.70
2022-09-25T11:27:37.636Z,15.23
2022-09-25T11:29:16.654Z,15.37
2022-09-25T11:30:56.774Z,15.10
2022-09-25T11:32:35.806Z,15.43
2022-09-25T11:34:18.160Z,14.40
2022-09-25T11:35:56.626Z,15.10
2022-09-25T11:37:36.734Z,14.00
2022-09-25T11:39:34.098Z,11.23
2022-09-25T11:41:14.822Z,10.30
2022-09-25T11:42:54.308Z,9.17
2022-09-25T11:44:35.845Z,9.50
2022-09-25T11:46:23.222Z,8.80
2022-09-25T11:48:05.628Z,8.40
2022-09-25T11:49:41.784Z,8.00
2022-09-25T11:51:24.900Z,6.50
2022-09-25T11:53:07.614Z,6.10
2022-09-25T11:54:54.061Z,5.17
2022-09-25T11:56:34.171Z,5.07
2022-09-25T11:58:31.768Z,5.57
2022-09-25T12:00:11.472Z,5.10
2022-09-25T12:01:51.142Z,4.70
2022-09-25T12:03:45.778Z,4.50
2022-09-25T12:05:32.457Z,4.10
2022-09-25T12:07:23.539Z,4.00
2022-09-25T12:09:17.120Z,3.87
2022-09-25T12:10:56.523Z,3.60
2022-09-25T12:12:36.633Z,3.97
2022-09-25T12:14:17.539Z,4.07
2022-09-25T12:16:01.974Z,4.10
2022-09-25T12:17:45.039Z,4.00
2022-09-25T12:19:28.280Z,4.13
2022-09-25T12:21:04.949Z,4.40
2022-09-25T12:22:49.897Z,4.37
2022-09-25T12:24:36.508Z,4.57
2022-09-25T12:26:20.291Z,4.37
2022-09-25T12:28:01.040Z,4.47
2022-09-25T12:29:53.054Z,4.50
2022-09-25T12:31:39.435Z,4.50
2022-09-25T12:33:23.220Z,4.40
2022-09-25T12:35:14.988Z,3.93
2022-09-25T12:36:54.192Z,4.70
2022-09-25T12:38:36.195Z,4.40
2022-09-25T12:40:18.437Z,4.43
2022-09-25T12:41:55.642Z,4.43
2022-09-25T12:43:33.445Z,4.53
2022-09-25T12:45:16.892Z,5.10
2022-09-25T12:46:54.820Z,4.13
2022-09-25T12:48:34.325Z,4.03
2022-09-25T12:50:12.566Z,4.00
2022-09-25T12:51:48.032Z,3.87
2022-09-25T12:53:30.673Z,3.50
2022-09-25T12:55:07.198Z,3.63
2022-09-25T12:56:47.085Z,3.43
2022-09-25T12:58:25.882Z,3.17
2022-09-25T13:00:01.448Z,2.83
2022-09-25T13:01:45.919Z,2.40
2022-09-25T13:03:27.554Z,2.10
2022-09-25T13:05:08.766Z,2.67
2022-09-25T13:06:49.294Z,2.70
2022-09-25T13:08:29.772Z,2.50
2022-09-25T13:10:04.637Z,2.50
2022-09-25T13:11:45.210Z,2.90
2022-09-25T13:13:21.825Z,3.00
2022-09-25T13:15:00.069Z,3.60
2022-09-25T13:16:32.867Z,2.80
2022-09-25T13:18:07.557Z,2.63
2022-09-25T13:19:40.646Z,2.70
2022-09-25T13:21:30.380Z,2.60
2022-09-25T13:23:09.928Z,3.10
2022-09-25T13:24:46.766Z,3.30
2022-09-25T13:26:22.496Z,3.00
2022-09-25T13:27:56.110Z,3.67
2022-09-25T13:29:32.032Z,3.10
2022-09-25T13:31:09.383Z,2.93
2022-09-25T13:32:50.262Z,2.87
2022-09-25T13:34:24.449Z,2.90
2022-09-25T13:36:11.754Z,3.20
2022-09-25T13:37:44.625Z,3.30
2022-09-25T13:39:40.794Z,4.77
2022-09-25T13:41:13.475Z,4.30
2022-09-25T13:42:47.694Z,3.73
2022-09-25T13:44:54.100Z,3.63
2022-09-25T13:46:28.241Z,3.50
2022-09-25T13:48:07.479Z,3.73
2022-09-25T13:49:51.285Z,3.10
2022-09-25T13:51:34.750Z,2.97
2022-09-25T13:53:21.189Z,2.97
2022-09-25T13:55:20.067Z,3.23
2022-09-25T13:56:55.162Z,3.10
2022-09-25T13:58:28.756Z,3.80
2022-09-25T14:00:05.150Z,3.10
2022-09-25T14:01:38.809Z,3.60
2022-09-25T14:03:31.716Z,3.47
2022-09-25T14:05:06.366Z,3.40
2022-09-25T14:06:39.515Z,3.43
2022-09-25T14:08:15.803Z,3.53
2022-09-25T14:09:53.541Z,3.23
2022-09-25T14:11:37.631Z,3.50
2022-09-25T14:13:14.522Z,3.30
2022-09-25T14:14:52.897Z,3.30
2022-09-25T14:16:29.765Z,3.30
2022-09-25T14:18:08.254Z,3.70
2022-09-25T14:19:44.154Z,3.50
2022-09-25T14:21:19.565Z,3.40
2022-09-25T14:22:55.833Z,3.60
2022-09-25T14:24:30.336Z,3.27
2022-09-25T14:26:06.186Z,3.67
2022-09-25T14:27:39.288Z,6.20
2022-09-25T14:29:17.354Z,9.20
2022-09-25T14:31:06.525Z,8.37
2022-09-25T14:32:58.798Z,16.43
2022-09-25T14:34:44.379Z,8.87
2022-09-25T14:36:27.901Z,14.60
2022-09-25T14:38:21.403Z,16.20
2022-09-25T14:40:03.418Z,5.63
2022-09-25T14:41:57.460Z,10.70
2022-09-25T14:43:45.784Z,12.47
2022-09-25T14:45:40.828Z,4.80
2022-09-25T14:47:16.945Z,4.77
2022-09-25T14:48:54.206Z,3.80
2022-09-25T14:50:30.098Z,4.97
2022-09-25T14:52:07.023Z,8.07
2022-09-25T14:53:43.004Z,3.93
2022-09-25T14:55:21.112Z,3.20
2022-09-25T14:56:57.090Z,3.27
2022-09-25T14:58:33.381Z,3.10
2022-09-25T15:00:09.616Z,3.33
2022-09-25T15:01:47.506Z,3.23
2022-09-25T15:03:22.502Z,3.27
2022-09-25T15:04:58.901Z,3.30
2022-09-25T15:06:34.000Z,3.60
2022-09-25T15:08:22.458Z,6.07
2022-09-25T15:09:57.615Z,14.17
2022-09-25T15:11:40.901Z,7.37
2022-09-25T15:13:16.756Z,5.00
2022-09-25T15:15:06.773Z,3.70
2022-09-25T15:17:01.897Z,7.07
2022-09-25T15:18:37.734Z,5.73
2022-09-25T15:20:14.625Z,4.70
2022-09-25T15:21:47.959Z,3.50
2022-09-25T15:23:22.507Z,3.00
2022-09-25T15:24:59.235Z,3.50
2022-09-25T15:26:33.752Z,3.27
2022-09-25T15:28:07.467Z,3.50
2022-09-25T15:29:45.303Z,3.30
2022-09-25T15:31:18.446Z,3.50
2022-09-25T15:32:59.780Z,2.73
2022-09-25T15:34:34.365Z,2.47
2022-09-25T15:36:16.493Z,2.87
2022-09-25T15:37:49.643Z,2.40
2022-09-25T15:39:25.316Z,2.33
2022-09-25T15:40:58.882Z,2.43
2022-09-25T15:42:31.640Z,2.40
2022-09-25T15:44:14.725Z,2.30
2022-09-25T15:45:55.567Z,2.30
2022-09-25T15:47:54.855Z,2.00
2022-09-25T15:49:32.734Z,2.03
2022-09-25T15:51:20.865Z,2.57
2022-09-25T15:52:56.291Z,2.40
2022-09-25T15:54:35.310Z,2.67
2022-09-25T15:56:17.657Z,2.40
2022-09-25T15:57:51.690Z,2.30
2022-09-25T15:59:28.939Z,2.30
2022-09-25T16:01:21.307Z,2.23
2022-09-25T16:03:15.392Z,2.23
2022-09-25T16:04:50.394Z,2.17
2022-09-25T16:06:23.171Z,2.20
2022-09-25T16:08:17.406Z,2.30
2022-09-25T16:09:51.276Z,2.90
2022-09-25T16:11:26.511Z,2.60
2022-09-25T16:12:59.336Z,2.37
2022-09-25T16:14:32.159Z,2.63
2022-09-25T16:16:04.968Z,2.97
2022-09-25T16:17:43.195Z,3.57
2022-09-25T16:19:33.353Z,3.13
2022-09-25T16:21:16.316Z,4.40
2022-09-25T16:22:53.509Z,4.63
2022-09-25T16:24:28.655Z,4.97
2022-09-25T16:26:02.097Z,4.60
2022-09-25T16:27:35.441Z,4.33
2022-09-25T16:29:21.980Z,4.80
2022-09-25T16:31:00.817Z,5.30
2022-09-25T16:32:34.069Z,5.90
2022-09-25T16:34:15.932Z,5.07
2022-09-25T16:36:11.636Z,5.47
2022-09-25T16:37:43.709Z,5.70
2022-09-25T16:39:25.562Z,5.10
2022-09-25T16:41:05.118Z,4.20
2022-09-25T16:42:40.364Z,3.60
2022-09-25T16:44:15.471Z,3.27
2022-09-25T16:45:58.946Z,3.13
2022-09-25T16:47:34.879Z,2.80
2022-09-25T16:49:08.095Z,2.47
2022-09-25T16:50:41.613Z,2.70
2022-09-25T16:52:22.188Z,2.67
2022-09-25T16:53:58.151Z,3.10
2022-09-25T16:55:33.210Z,3.00
2022-09-25T16:57:04.950Z,3.40
2022-09-25T16:58:37.655Z,3.30
2022-09-25T17:00:15.207Z,4.30
2022-09-25T17:01:50.010Z,4.30
2022-09-25T17:03:22.857Z,3.90
2022-09-25T17:04:54.598Z,4.00
2022-09-25T17:06:30.302Z,4.10
2022-09-25T17:08:17.392Z,3.80
2022-09-25T17:09:49.659Z,3.50
2022-09-25T17:11:23.103Z,3.60
2022-09-25T17:12:58.065Z,3.53
2022-09-25T17:14:30.850Z,4.20
2022-09-25T17:16:03.833Z,3.67
2022-09-25T17:17:36.542Z,3.83
2022-09-25T17:19:16.118Z,4.00
2022-09-25T17:20:52.242Z,3.90
2022-09-25T17:22:29.405Z,3.60
2022-09-25T17:24:03.524Z,4.00
2022-09-25T17:25:42.526Z,4.03
2022-09-25T17:27:17.102Z,3.87
2022-09-25T17:28:50.561Z,4.53
2022-09-25T17:30:23.268Z,4.27
2022-09-25T17:31:55.976Z,3.97
2022-09-25T17:33:30.334Z,4.47
2022-09-25T17:35:03.078Z,3.60
2022-09-25T17:36:34.891Z,3.97
2022-09-25T17:38:08.107Z,3.80
2022-09-25T17:39:42.191Z,3.50
2022-09-25T17:41:19.496Z,3.70
2022-09-25T17:42:52.178Z,4.47
2022-09-25T17:44:24.864Z,4.83
2022-09-25T17:45:58.722Z,4.33
2022-09-25T17:47:31.839Z,4.10
2022-09-25T17:49:05.478Z,3.90
2022-09-25T17:50:39.423Z,4.10
2022-09-25T17:52:17.552Z,3.80
2022-09-25T17:53:52.613Z,3.80
2022-09-25T17:55:26.610Z,3.77
2022-09-25T17:56:59.276Z,4.00
2022-09-25T17:58:32.559Z,5.30
2022-09-25T18:00:06.209Z,4.80
2022-09-25T18:01:40.134Z,5.27
2022-09-25T18:03:14.023Z,4.93
2022-09-25T18:04:46.782Z,5.20
2022-09-25T18:06:20.005Z,5.83
2022-09-25T18:07:52.987Z,4.43
2022-09-25T18:09:26.384Z,3.87
2022-09-25T18:11:00.791Z,3.53
2022-09-25T18:12:32.517Z,3.40
2022-09-25T18:14:05.198Z,3.67
2022-09-25T18:15:42.467Z,3.20
2022-09-25T18:17:16.483Z,2.77
2022-09-25T18:19:06.675Z,2.97
2022-09-25T18:20:57.119Z,3.10
2022-09-25T18:22:29.791Z,3.33
2022-09-25T18:24:02.910Z,4.33
2022-09-25T18:25:38.568Z,4.43
2022-09-25T18:27:12.194Z,3.80
2022-09-25T18:28:44.868Z,4.60
2022-09-25T18:30:22.163Z,5.00
2022-09-25T18:31:54.932Z,5.50
2022-09-25T18:33:27.630Z,4.00
2022-09-25T18:35:02.301Z,4.70
2022-09-25T18:36:35.280Z,4.57
2022-09-25T18:38:08.105Z,4.53
2022-09-25T18:39:40.801Z,4.23
2022-09-25T18:41:14.478Z,4.30
2022-09-25T18:42:48.885Z,4.17
2022-09-25T18:44:23.404Z,4.47
2022-09-25T18:45:56.411Z,4.30
2022-09-25T18:47:29.744Z,4.20
2022-09-25T18:49:02.501Z,4.10
2022-09-25T18:50:35.179Z,4.10
2022-09-25T18:52:08.044Z,3.83
2022-09-25T18:53:40.832Z,4.00
2022-09-25T18:55:13.541Z,3.60
2022-09-25T18:56:45.337Z,3.50
2022-09-25T18:58:19.374Z,5.83
2022-09-25T18:59:52.074Z,4.67
2022-09-25T19:01:23.899Z,4.80
2022-09-25T19:02:56.796Z,4.20
2022-09-25T19:04:29.733Z,4.40
2022-09-25T19:06:03.927Z,4.30
2022-09-25T19:07:37.951Z,5.00
2022-09-25T19:09:16.167Z,4.57
2022-09-25T19:10:49.242Z,4.57
2022-09-25T19:12:22.454Z,5.70
2022-09-25T19:13:56.501Z,9.57
2022-09-25T19:15:29.390Z,9.07
2022-09-25T19:17:03.028Z,6.93
2022-09-25T19:18:35.711Z,5.40
2022-09-25T19:20:09.563Z,4.53
2022-09-25T19:21:42.246Z,4.43
2022-09-25T19:23:15.177Z,4.10
2022-09-25T19:24:49.023Z,4.30
2022-09-25T19:26:25.635Z,3.70
2022-09-25T19:27:58.337Z,3.43
2022-09-25T19:29:35.636Z,4.13
2022-09-25T19:31:12.834Z,4.10
2022-09-25T19:32:45.638Z,4.00
2022-09-25T19:34:18.313Z,4.47
2022-09-25T19:35:50.972Z,4.53
2022-09-25T19:37:27.522Z,4.50
2022-09-25T19:39:01.259Z,4.50
2022-09-25T19:40:39.718Z,4.97
2022-09-25T19:42:12.681Z,4.37
2022-09-25T19:43:45.700Z,4.63
2022-09-25T19:45:21.035Z,4.17
2022-09-25T19:46:53.710Z,4.13
2022-09-25T19:48:26.388Z,4.97
2022-09-25T19:49:59.085Z,4.83
2022-09-25T19:51:31.768Z,5.17
2022-09-25T19:53:03.509Z,5.90
2022-09-25T19:54:36.239Z,6.20
2022-09-25T19:56:10.018Z,7.40
2022-09-25T19:57:42.743Z,6.20
2022-09-25T19:59:17.294Z,6.57
2022-09-25T20:00:51.816Z,6.30
2022-09-25T20:02:24.525Z,5.80
2022-09-25T20:03:57.657Z,4.83
2022-09-25T20:05:29.365Z,6.50
2022-09-25T20:07:02.028Z,5.67
2022-09-25T20:08:34.720Z,5.40
2022-09-25T20:10:07.880Z,5.83
2022-09-25T20:11:40.550Z,5.83
2022-09-25T20:13:14.086Z,6.63
2022-09-25T20:14:48.421Z,5.40
2022-09-25T20:16:26.290Z,5.27
2022-09-25T20:17:59.412Z,5.40
2022-09-25T20:19:32.082Z,5.53
2022-09-25T20:21:05.348Z,6.30
2022-09-25T20:22:38.005Z,6.07
2022-09-25T20:24:11.204Z,6.43
2022-09-25T20:25:43.890Z,4.83
2022-09-25T20:27:20.986Z,5.00
2022-09-25T20:28:59.953Z,4.77
2022-09-25T20:30:35.356Z,4.93
2022-09-25T20:32:09.417Z,4.80
2022-09-25T20:33:42.827Z,5.27
2022-09-25T20:35:16.552Z,5.10
2022-09-25T20:36:49.570Z,5.70
2022-09-25T20:38:21.314Z,5.07
2022-09-25T20:39:54.177Z,5.20
2022-09-25T20:41:26.580Z,5.50
2022-09-25T20:42:59.278Z,5.67
2022-09-25T20:44:31.954Z,5.60
2022-09-25T20:46:06.854Z,5.20
2022-09-25T20:47:46.023Z,5.40
2022-09-25T20:49:20.067Z,6.43
2022-09-25T20:50:54.702Z,5.87
2022-09-25T20:52:27.544Z,5.70
2022-09-25T20:54:02.511Z,5.60
2022-09-25T20:55:38.517Z,5.60
2022-09-25T20:57:11.358Z,5.23
2022-09-25T20:58:49.477Z,5.30
2022-09-25T21:00:25.441Z,5.23
2022-09-25T21:01:58.164Z,4.70
2022-09-25T21:03:32.936Z,5.07
2022-09-25T21:05:06.832Z,5.60
2022-09-25T21:06:40.436Z,5.40
2022-09-25T21:08:13.385Z,5.13